createdAt,value
2022-08-27T00:01:23.895Z,95886.22
2022-08-27T00:03:51.902Z,95899.28
2022-08-27T00:06:20.602Z,95894.44
2022-08-27T00:08:49.352Z,95897.13
2022-08-27T00:11:18.742Z,95899.69
2022-08-27T00:13:46.742Z,95896.41
2022-08-27T00:16:17.372Z,95894.47
2022-08-27T00:18:48.240Z,95903.16
2022-08-27T00:21:17.210Z,95897.31
2022-08-27T00:23:44.716Z,95899.78
2022-08-27T00:26:13.061Z,95894.34
2022-08-27T00:28:40.881Z,95892.38
2022-08-27T00:31:12.124Z,95888.28
2022-08-27T00:33:41.794Z,95888.72
2022-08-27T00:36:09.827Z,95893.06
2022-08-27T00:38:38.536Z,95893.94
2022-08-27T00:41:08.709Z,95892.03
2022-08-27T00:43:47.026Z,95885.63
2022-08-27T00:46:21.062Z,95892.25
2022-08-27T00:48:51.908Z,95885.00
2022-08-27T00:51:21.378Z,95884.81
2022-08-27T00:53:49.640Z,95885.41
2022-08-27T00:56:20.334Z,95890.00
2022-08-27T00:58:51.620Z,95899.31
2022-08-27T01:01:23.404Z,95893.84
2022-08-27T01:03:56.150Z,95894.19
2022-08-27T01:06:26.476Z,95892.88
2022-08-27T01:08:59.873Z,95897.47
2022-08-27T01:11:27.386Z,95897.47
2022-08-27T01:13:59.877Z,95897.22
2022-08-27T01:16:33.623Z,95901.13
2022-08-27T01:19:04.336Z,95908.22
2022-08-27T01:21:37.557Z,95912.53
2022-08-27T01:24:14.838Z,95906.44
2022-08-27T01:26:44.039Z,95908.69
2022-08-27T01:29:11.840Z,95910.47
2022-08-27T01:31:39.411Z,95910.22
2022-08-27T01:34:07.552Z,95915.34
2022-08-27T01:36:35.275Z,95908.47
2022-08-27T01:39:02.956Z,95915.50
2022-08-27T01:41:32.909Z,95919.72
2022-08-27T01:44:01.753Z,95925.03
2022-08-27T01:46:29.687Z,95921.09
2022-08-27T01:48:57.207Z,95926.53
2022-08-27T01:51:24.820Z,95916.09
2022-08-27T01:53:52.330Z,95918.09
2022-08-27T01:56:19.832Z,95918.34
2022-08-27T01:58:47.368Z,95922.47
2022-08-27T02:01:17.360Z,95915.53
2022-08-27T02:03:47.296Z,95925.16
2022-08-27T02:06:15.416Z,95921.69
2022-08-27T02:08:43.110Z,95923.91
2022-08-27T02:11:10.688Z,95922.06
2022-08-27T02:13:39.145Z,95919.72
2022-08-27T02:16:07.293Z,95922.06
2022-08-27T02:18:38.463Z,95920.38
2022-08-27T02:21:09.274Z,95913.91
2022-08-27T02:23:37.162Z,95910.88
2022-08-27T02:26:04.849Z,95906.34
2022-08-27T02:28:32.383Z,95904.03
2022-08-27T02:31:00.754Z,95909.56
2022-08-27T02:33:28.636Z,95912.56
2022-08-27T02:35:57.481Z,95913.94
2022-08-27T02:38:25.051Z,95916.44
2022-08-27T02:40:54.257Z,95919.66
2022-08-27T02:43:25.231Z,95913.09
2022-08-27T02:45:53.476Z,95907.00
2022-08-27T02:48:21.384Z,95918.56
2022-08-27T02:50:48.897Z,95921.94
2022-08-27T02:53:18.490Z,95920.38
2022-08-27T02:55:46.612Z,95906.09
2022-08-27T02:58:16.719Z,95913.97
2022-08-27T03:00:44.468Z,95913.84
2022-08-27T03:03:12.059Z,95911.63
2022-08-27T03:05:39.587Z,95906.88
2022-08-27T03:08:07.747Z,95913.81
2022-08-27T03:10:36.731Z,95908.09
2022-08-27T03:13:04.290Z,95909.53
2022-08-27T03:15:31.892Z,95909.53
2022-08-27T03:18:17.351Z,95905.00
2022-08-27T03:20:46.493Z,95900.72
2022-08-27T03:23:15.615Z,95901.72
2022-08-27T03:25:47.995Z,95902.16
2022-08-27T03:28:22.739Z,95902.78
2022-08-27T03:30:52.784Z,95896.81
2022-08-27T03:33:21.737Z,95900.69
2022-08-27T03:35:51.839Z,95901.72
2022-08-27T03:38:20.175Z,95898.38
2022-08-27T03:40:49.532Z,95902.63
2022-08-27T03:43:18.998Z,95904.94
2022-08-27T03:46:01.006Z,95902.44
2022-08-27T03:48:30.908Z,95907.53
2022-08-27T03:50:58.457Z,95900.66
2022-08-27T03:53:26.022Z,95896.63
2022-08-27T03:55:54.947Z,95887.75
2022-08-27T03:58:22.433Z,95899.06
2022-08-27T04:00:50.200Z,95893.06
2022-08-27T04:03:17.677Z,95885.59
2022-08-27T04:05:45.418Z,95891.25
2022-08-27T04:08:13.735Z,95890.44
2022-08-27T04:10:41.570Z,95889.06
2022-08-27T04:13:10.387Z,95886.19
2022-08-27T04:15:40.643Z,95884.38
2022-08-27T04:18:08.848Z,95889.91
2022-08-27T04:20:36.653Z,95887.34
2022-08-27T04:23:04.473Z,95884.38
2022-08-27T04:25:32.017Z,95883.50
2022-08-27T04:27:59.717Z,95890.44
2022-08-27T04:30:28.636Z,95887.50
2022-08-27T04:32:56.124Z,95898.72
2022-08-27T04:35:23.723Z,95897.78
2022-08-27T04:37:51.227Z,95897.91
2022-08-27T04:40:18.951Z,95902.63
2022-08-27T04:42:46.492Z,95901.28
2022-08-27T04:45:14.206Z,95904.13
2022-08-27T04:47:43.075Z,95907.31
2022-08-27T04:50:11.312Z,95904.13
2022-08-27T04:52:41.203Z,95909.63
2022-08-27T04:55:10.324Z,95909.72
2022-08-27T04:57:38.157Z,95903.50
2022-08-27T05:00:08.423Z,95907.19
2022-08-27T05:02:35.955Z,95911.13
2022-08-27T05:05:05.019Z,95904.66
2022-08-27T05:07:32.562Z,95904.47
2022-08-27T05:10:00.059Z,95909.56
2022-08-27T05:12:27.537Z,95903.50
2022-08-27T05:14:55.656Z,95904.22
2022-08-27T05:17:23.167Z,95911.06
2022-08-27T05:19:50.672Z,95901.25
2022-08-27T05:22:19.627Z,95910.00
2022-08-27T05:24:50.381Z,95908.25
2022-08-27T05:27:18.108Z,95907.34
2022-08-27T05:29:45.597Z,95897.09
2022-08-27T05:32:13.430Z,95896.66
2022-08-27T05:34:40.915Z,95900.72
2022-08-27T05:37:08.460Z,95896.06
2022-08-27T05:39:37.324Z,95898.25
2022-08-27T05:42:05.180Z,95897.13
2022-08-27T05:44:41.274Z,95893.63
2022-08-27T05:47:09.967Z,95897.97
2022-08-27T05:49:37.606Z,95895.56
2022-08-27T05:52:09.533Z,95899.84
2022-08-27T05:54:38.888Z,95903.97
2022-08-27T05:57:06.825Z,95898.09
2022-08-27T05:59:51.869Z,95911.66
2022-08-27T06:02:20.795Z,95913.53
2022-08-27T06:04:48.694Z,95904.13
2022-08-27T06:07:16.322Z,95904.69
2022-08-27T06:09:45.143Z,95896.69
2022-08-27T06:12:12.684Z,95910.03
2022-08-27T06:14:40.428Z,95901.19
2022-08-27T06:17:08.248Z,95900.56
2022-08-27T06:19:37.647Z,95900.06
2022-08-27T06:22:10.597Z,95893.31
2022-08-27T06:24:40.233Z,95894.66
2022-08-27T06:27:11.177Z,95892.66
2022-08-27T06:29:39.492Z,95899.34
2022-08-27T06:32:07.704Z,95904.38
2022-08-27T06:34:35.192Z,95907.47
2022-08-27T06:37:02.804Z,95899.09
2022-08-27T06:39:32.856Z,95913.72
2022-08-27T06:42:00.551Z,95912.31
2022-08-27T06:44:29.536Z,95901.81
2022-08-27T06:46:57.030Z,95913.19
2022-08-27T06:49:24.835Z,95912.31
2022-08-27T06:51:52.323Z,95915.84
2022-08-27T06:54:20.054Z,95916.28
2022-08-27T06:56:49.168Z,95916.22
2022-08-27T06:59:19.705Z,95916.03
2022-08-27T07:01:51.301Z,95925.09
2022-08-27T07:04:21.396Z,95926.63
2022-08-27T07:06:49.765Z,95925.78
2022-08-27T07:09:20.514Z,95923.97
2022-08-27T07:11:48.553Z,95929.91
2022-08-27T07:14:16.431Z,95939.25
2022-08-27T07:16:45.292Z,95950.31
2022-08-27T07:19:16.996Z,95940.94
2022-08-27T07:21:44.780Z,95934.06
2022-08-27T07:24:12.476Z,95937.66
2022-08-27T07:26:42.974Z,95939.78
2022-08-27T07:29:14.822Z,95950.59
2022-08-27T07:31:43.630Z,95954.31
2022-08-27T07:34:11.440Z,95950.88
2022-08-27T07:36:41.020Z,95953.91
2022-08-27T07:39:08.918Z,95955.88
2022-08-27T07:41:58.202Z,95957.38
2022-08-27T07:44:26.111Z,95959.94
2022-08-27T07:46:54.505Z,95966.78
2022-08-27T07:49:22.784Z,95958.41
2022-08-27T07:51:52.421Z,95956.28
2022-08-27T07:54:22.892Z,95960.31
2022-08-27T07:56:55.501Z,95951.53
2022-08-27T07:59:24.067Z,95948.91
2022-08-27T08:01:52.010Z,95951.59
2022-08-27T08:04:20.403Z,95954.50
2022-08-27T08:06:48.765Z,95951.28
2022-08-27T08:09:17.719Z,95950.81
2022-08-27T08:11:45.232Z,95954.72
2022-08-27T08:14:12.772Z,95951.56
2022-08-27T08:16:40.325Z,95948.56
2022-08-27T08:19:09.118Z,95958.56
2022-08-27T08:21:37.946Z,95963.19
2022-08-27T08:24:05.867Z,95969.00
2022-08-27T08:26:35.822Z,95969.91
2022-08-27T08:29:04.867Z,95971.06
2022-08-27T08:31:32.469Z,95962.94
2022-08-27T08:33:59.994Z,95968.00
2022-08-27T08:36:27.508Z,95965.22
2022-08-27T08:38:55.342Z,95967.97
2022-08-27T08:41:41.295Z,95965.44
2022-08-27T08:44:16.028Z,95965.00
2022-08-27T08:46:49.544Z,95968.88
2022-08-27T08:49:31.284Z,95968.41
2022-08-27T08:52:08.651Z,95968.75
2022-08-27T08:54:36.702Z,95969.28
2022-08-27T08:57:12.899Z,95968.97
2022-08-27T08:59:55.410Z,95971.88
2022-08-27T09:02:23.043Z,95972.94
2022-08-27T09:04:54.299Z,95972.41
2022-08-27T09:07:30.564Z,95979.91
2022-08-27T09:10:04.399Z,95973.75
2022-08-27T09:12:33.486Z,95975.59
2022-08-27T09:15:12.399Z,95981.41
2022-08-27T09:17:41.886Z,95980.41
2022-08-27T09:20:13.014Z,95982.25
2022-08-27T09:22:52.868Z,95984.78
2022-08-27T09:25:25.386Z,95986.31
2022-08-27T09:27:58.038Z,95982.31
2022-08-27T09:30:30.725Z,95981.06
2022-08-27T09:33:03.988Z,95982.50
2022-08-27T09:35:41.951Z,95979.88
2022-08-27T09:38:10.439Z,95975.09
2022-08-27T09:40:44.400Z,95973.06
2022-08-27T09:43:23.363Z,95964.22
2022-08-27T09:45:53.142Z,95968.00
2022-08-27T09:48:23.097Z,95961.53
2022-08-27T09:50:53.191Z,95957.66
2022-08-27T09:53:25.342Z,95958.09
2022-08-27T09:55:56.416Z,95962.22
2022-08-27T09:58:30.663Z,95959.34
2022-08-27T10:01:04.328Z,95951.84
2022-08-27T10:03:33.524Z,95961.84
2022-08-27T10:06:01.508Z,95949.31
2022-08-27T10:08:36.247Z,95956.75
2022-08-27T10:11:07.662Z,95957.13
2022-08-27T10:13:42.903Z,95959.81
2022-08-27T10:16:26.541Z,95959.84
2022-08-27T10:19:12.531Z,95960.66
2022-08-27T10:21:47.868Z,95951.13
2022-08-27T10:24:30.913Z,95953.28
2022-08-27T10:27:13.837Z,95952.75
2022-08-27T10:29:50.976Z,95952.16
2022-08-27T10:32:35.167Z,95949.19
2022-08-27T10:35:10.416Z,95947.28
2022-08-27T10:37:49.775Z,95952.19
2022-08-27T10:40:23.088Z,95951.91
2022-08-27T10:43:01.495Z,95952.75
2022-08-27T10:45:42.939Z,95960.38
2022-08-27T10:48:24.508Z,95960.31
2022-08-27T10:50:57.596Z,95964.28
2022-08-27T10:53:37.236Z,95959.16
2022-08-27T10:56:14.326Z,95951.56
2022-08-27T10:59:03.437Z,95953.72
2022-08-27T11:01:44.864Z,95953.19
2022-08-27T11:04:18.559Z,95950.28
2022-08-27T11:06:54.157Z,95947.25
2022-08-27T11:09:29.455Z,95947.31
2022-08-27T11:12:15.654Z,95949.94
2022-08-27T11:14:49.109Z,95949.38
2022-08-27T11:17:24.525Z,95953.44
2022-08-27T11:19:56.327Z,95953.59
2022-08-27T11:22:30.353Z,95952.69
2022-08-27T11:25:03.688Z,95950.09
2022-08-27T11:27:34.249Z,95948.66
2022-08-27T11:30:06.383Z,95947.84
2022-08-27T11:32:49.170Z,95960.81
2022-08-27T11:35:22.586Z,95961.31
2022-08-27T11:38:15.968Z,95961.97
2022-08-27T11:41:00.240Z,95959.56
2022-08-27T11:43:33.738Z,95948.44
2022-08-27T11:46:03.123Z,95960.50
2022-08-27T11:48:34.545Z,95960.00
2022-08-27T11:51:05.647Z,95957.09
2022-08-27T11:53:35.223Z,95962.69
2022-08-27T11:56:36.781Z,95969.41
2022-08-27T11:59:11.111Z,95970.72
2022-08-27T12:01:40.160Z,95978.84
2022-08-27T12:04:23.539Z,95980.09
2022-08-27T12:06:53.222Z,95987.16
2022-08-27T12:09:23.934Z,95992.56
2022-08-27T12:12:04.121Z,95991.97
2022-08-27T12:14:43.395Z,95984.22
2022-08-27T12:17:21.080Z,95981.75
2022-08-27T12:20:01.452Z,95982.44
2022-08-27T12:22:58.246Z,95984.09
2022-08-27T12:25:26.276Z,95989.69
2022-08-27T12:27:58.787Z,95990.81
2022-08-27T12:30:31.976Z,95984.84
2022-08-27T12:33:00.976Z,95981.19
2022-08-27T12:35:38.428Z,95963.88
2022-08-27T12:38:12.828Z,95960.25
2022-08-27T12:40:46.397Z,95958.97
2022-08-27T12:43:15.696Z,95957.72
2022-08-27T12:45:48.157Z,95954.06
2022-08-27T12:48:20.470Z,95957.09
2022-08-27T12:50:54.168Z,95941.13
2022-08-27T12:53:43.953Z,95942.34
2022-08-27T12:56:28.047Z,95946.44
2022-08-27T12:59:01.801Z,95949.56
2022-08-27T13:01:49.908Z,95948.09
2022-08-27T13:04:22.683Z,95947.38
2022-08-27T13:06:51.741Z,95941.91
2022-08-27T13:09:27.916Z,95941.88
2022-08-27T13:11:56.875Z,95950.75
2022-08-27T13:14:26.833Z,95944.91
2022-08-27T13:16:57.276Z,95947.13
2022-08-27T13:19:28.028Z,95939.19
2022-08-27T13:21:57.708Z,95938.59
2022-08-27T13:24:31.045Z,95935.13
2022-08-27T13:26:59.420Z,95939.03
2022-08-27T13:29:27.645Z,95938.13
2022-08-27T13:31:56.272Z,95936.47
2022-08-27T13:34:26.703Z,95941.00
2022-08-27T13:36:59.839Z,95936.72
2022-08-27T13:39:28.170Z,95933.78
2022-08-27T13:41:59.484Z,95934.19
2022-08-27T13:44:32.328Z,95930.34
2022-08-27T13:47:03.227Z,95926.72
2022-08-27T13:49:34.536Z,95924.69
2022-08-27T13:52:24.500Z,95930.06
2022-08-27T13:54:57.736Z,95918.69
2022-08-27T13:57:26.872Z,95915.63
2022-08-27T13:59:54.419Z,95912.50
2022-08-27T14:02:27.570Z,95914.69
2022-08-27T14:05:11.051Z,95916.31
2022-08-27T14:07:44.378Z,95912.13
2022-08-27T14:10:30.587Z,95915.28
2022-08-27T14:13:01.036Z,95910.53
2022-08-27T14:15:33.592Z,95915.31
2022-08-27T14:18:02.623Z,95919.13
2022-08-27T14:20:30.335Z,95917.34
2022-08-27T14:22:59.620Z,95916.38
2022-08-27T14:25:27.487Z,95917.56
2022-08-27T14:27:57.085Z,95917.03
2022-08-27T14:30:29.267Z,95913.47
2022-08-27T14:32:58.493Z,95912.38
2022-08-27T14:35:26.279Z,95918.56
2022-08-27T14:37:54.612Z,95916.06
2022-08-27T14:40:23.594Z,95919.06
2022-08-27T14:42:51.217Z,95917.81
2022-08-27T14:45:19.653Z,95910.97
2022-08-27T14:47:47.338Z,95908.53
2022-08-27T14:50:15.495Z,95913.78
2022-08-27T14:52:42.984Z,95915.97
2022-08-27T14:55:14.241Z,95917.00
2022-08-27T14:57:43.060Z,95913.78
2022-08-27T15:00:11.866Z,95910.25
2022-08-27T15:02:43.966Z,95908.09
2022-08-27T15:05:16.282Z,95909.69
2022-08-27T15:07:46.197Z,95905.34
2022-08-27T15:10:15.435Z,95911.34
2022-08-27T15:12:44.409Z,95911.88
2022-08-27T15:15:12.688Z,95910.25
2022-08-27T15:17:40.212Z,95901.22
2022-08-27T15:20:18.883Z,95906.94
2022-08-27T15:22:49.226Z,95904.50
2022-08-27T15:25:17.189Z,95906.28
2022-08-27T15:27:46.074Z,95905.84
2022-08-27T15:30:16.460Z,95904.81
2022-08-27T15:32:45.811Z,95912.41
2022-08-27T15:35:17.088Z,95924.16
2022-08-27T15:37:45.605Z,95929.16
2022-08-27T15:40:14.591Z,95927.47
2022-08-27T15:42:42.960Z,95935.84
2022-08-27T15:45:13.781Z,95932.41
2022-08-27T15:47:41.285Z,95935.72
2022-08-27T15:50:09.543Z,95933.44
2022-08-27T15:52:40.897Z,95938.59
2022-08-27T15:55:15.760Z,95930.59
2022-08-27T15:57:43.251Z,95924.03
2022-08-27T16:00:13.380Z,95931.31
2022-08-27T16:02:42.335Z,95924.28
2022-08-27T16:05:11.000Z,95921.66
2022-08-27T16:07:38.632Z,95925.56
2022-08-27T16:10:07.605Z,95922.28
2022-08-27T16:12:35.760Z,95924.25
2022-08-27T16:15:05.798Z,95922.13
2022-08-27T16:17:36.250Z,95924.25
2022-08-27T16:20:06.064Z,95923.53
2022-08-27T16:22:34.736Z,95927.91
2022-08-27T16:25:02.490Z,95931.13
2022-08-27T16:27:29.980Z,95931.94
2022-08-27T16:29:57.579Z,95926.72
2022-08-27T16:32:25.941Z,95930.88
2022-08-27T16:34:55.840Z,95925.59
2022-08-27T16:37:24.055Z,95923.97
2022-08-27T16:39:52.061Z,95931.94
2022-08-27T16:42:19.733Z,95925.56
2022-08-27T16:44:47.219Z,95920.31
2022-08-27T16:47:14.872Z,95922.25
2022-08-27T16:50:00.843Z,95920.94
2022-08-27T16:52:30.066Z,95927.16
2022-08-27T16:54:57.612Z,95937.41
2022-08-27T16:57:25.102Z,95928.44
2022-08-27T16:59:54.946Z,95931.56
2022-08-27T17:02:30.669Z,95938.47
2022-08-27T17:05:12.276Z,95938.34
2022-08-27T17:07:48.228Z,95945.41
2022-08-27T17:10:17.212Z,95939.88
2022-08-27T17:12:46.207Z,95937.72
2022-08-27T17:15:14.478Z,95940.13
2022-08-27T17:17:42.068Z,95938.22
2022-08-27T17:20:10.324Z,95945.72
2022-08-27T17:22:38.059Z,95941.28
2022-08-27T17:25:08.660Z,95948.09
2022-08-27T17:27:36.489Z,95951.06
2022-08-27T17:30:05.078Z,95951.91
2022-08-27T17:32:37.474Z,95944.81
2022-08-27T17:35:06.552Z,95946.25
2022-08-27T17:37:34.722Z,95956.19
2022-08-27T17:40:02.719Z,95950.00
2022-08-27T17:42:32.326Z,95956.53
2022-08-27T17:45:00.126Z,95955.41
2022-08-27T17:47:27.809Z,95954.16
2022-08-27T17:49:55.292Z,95955.94
2022-08-27T17:52:23.755Z,95961.13
2022-08-27T17:54:54.121Z,95958.69
2022-08-27T17:57:23.859Z,95960.13
2022-08-27T17:59:54.305Z,95966.53
2022-08-27T18:02:25.459Z,95971.19
2022-08-27T18:04:53.027Z,95975.78
2022-08-27T18:07:20.937Z,95982.09
2022-08-27T18:09:49.111Z,95979.03
2022-08-27T18:12:19.659Z,95985.94
2022-08-27T18:14:53.062Z,95992.00
2022-08-27T18:17:36.676Z,95991.53
2022-08-27T18:20:06.215Z,95988.25
2022-08-27T18:22:38.755Z,95995.09
2022-08-27T18:25:09.398Z,95998.97
2022-08-27T18:27:38.295Z,96003.66
2022-08-27T18:30:07.341Z,96006.09
2022-08-27T18:32:36.436Z,96000.69
2022-08-27T18:35:08.096Z,96002.34
2022-08-27T18:37:35.579Z,96000.59
2022-08-27T18:40:03.276Z,95999.16
2022-08-27T18:42:31.202Z,96000.53
2022-08-27T18:45:01.487Z,96009.09
2022-08-27T18:47:32.680Z,96011.91
2022-08-27T18:50:01.493Z,96013.09
2022-08-27T18:52:28.974Z,96020.47
2022-08-27T18:54:56.585Z,96016.25
2022-08-27T18:57:25.860Z,96028.81
2022-08-27T18:59:53.366Z,96026.19
2022-08-27T19:02:22.405Z,96033.91
2022-08-27T19:04:50.325Z,96039.44
2022-08-27T19:07:19.221Z,96040.19
2022-08-27T19:09:49.967Z,96049.22
2022-08-27T19:12:17.606Z,96044.50
2022-08-27T19:14:47.808Z,96050.00
2022-08-27T19:17:24.590Z,96052.75
2022-08-27T19:19:52.751Z,96041.16
2022-08-27T19:22:21.632Z,96051.56
2022-08-27T19:24:50.768Z,96053.09
2022-08-27T19:27:24.692Z,96058.25
2022-08-27T19:29:53.291Z,96059.09
2022-08-27T19:32:21.115Z,96068.00
2022-08-27T19:34:48.750Z,96068.38
2022-08-27T19:37:21.010Z,96067.72
2022-08-27T19:39:49.830Z,96065.75
2022-08-27T19:42:17.613Z,96058.41
2022-08-27T19:44:45.376Z,96062.91
2022-08-27T19:47:14.856Z,96065.09
2022-08-27T19:49:46.131Z,96054.97
2022-08-27T19:52:14.026Z,96059.03
2022-08-27T19:54:56.851Z,96053.91
2022-08-27T19:57:30.451Z,96061.28
2022-08-27T19:59:57.942Z,96062.03
2022-08-27T20:02:25.899Z,96046.19
2022-08-27T20:05:16.488Z,96050.09
2022-08-27T20:07:41.371Z,96056.69
2022-08-27T20:10:09.536Z,96056.69
2022-08-27T20:12:38.461Z,96057.50
2022-08-27T20:15:06.848Z,96054.84
2022-08-27T20:17:35.399Z,96054.25
2022-08-27T20:20:03.008Z,96060.63
2022-08-27T20:22:30.616Z,96065.75
2022-08-27T20:24:58.105Z,96064.56
2022-08-27T20:27:25.637Z,96056.47
2022-08-27T20:29:55.907Z,96052.13
2022-08-27T20:32:29.236Z,96045.25
2022-08-27T20:34:57.464Z,96041.66
2022-08-27T20:37:25.024Z,96048.94
2022-08-27T20:39:52.780Z,96047.13
2022-08-27T20:42:20.618Z,96042.88
2022-08-27T20:44:48.834Z,96048.28
2022-08-27T20:47:18.743Z,96048.63
2022-08-27T20:49:46.227Z,96046.28
2022-08-27T20:52:14.028Z,96051.69
2022-08-27T20:54:41.644Z,96048.63
2022-08-27T20:57:09.585Z,96037.63
2022-08-27T20:59:54.990Z,96044.09
2022-08-27T21:02:26.268Z,96052.75
2022-08-27T21:04:54.709Z,96043.78
2022-08-27T21:07:23.815Z,96042.72
2022-08-27T21:09:56.996Z,96039.94
2022-08-27T21:12:26.597Z,96042.25
2022-08-27T21:14:55.980Z,96049.69
2022-08-27T21:17:26.527Z,96041.25
2022-08-27T21:19:54.178Z,96046.53
2022-08-27T21:22:22.556Z,96058.03
2022-08-27T21:24:50.534Z,96055.78
2022-08-27T21:27:21.002Z,96057.31
2022-08-27T21:29:49.199Z,96062.63
2022-08-27T21:32:17.808Z,96058.97
2022-08-27T21:34:46.956Z,96061.44
2022-08-27T21:37:15.554Z,96065.53
2022-08-27T21:39:44.230Z,96060.16
2022-08-27T21:42:15.379Z,96064.19
2022-08-27T21:44:43.008Z,96054.63
2022-08-27T21:47:11.184Z,96055.41
2022-08-27T21:49:38.726Z,96051.50
2022-08-27T21:52:07.852Z,96061.97
2022-08-27T21:54:38.372Z,96054.81
2022-08-27T21:57:06.848Z,96061.06
2022-08-27T21:59:40.044Z,96067.25
2022-08-27T22:02:28.794Z,96066.34
2022-08-27T22:04:55.720Z,96060.78
2022-08-27T22:07:24.694Z,96066.84
2022-08-27T22:09:52.177Z,96064.16
2022-08-27T22:12:19.668Z,96060.03
2022-08-27T22:14:47.163Z,96064.81
2022-08-27T22:17:15.846Z,96068.94
2022-08-27T22:19:43.420Z,96074.34
2022-08-27T22:22:10.935Z,96078.53
2022-08-27T22:24:39.774Z,96078.09
2022-08-27T22:27:07.267Z,96074.81
2022-08-27T22:29:34.756Z,96074.50
2022-08-27T22:32:02.254Z,96078.09
2022-08-27T22:34:29.741Z,96086.41
2022-08-27T22:36:57.200Z,96083.38
2022-08-27T22:39:24.752Z,96084.91
2022-08-27T22:41:56.016Z,96085.06
2022-08-27T22:44:24.219Z,96081.94
2022-08-27T22:46:52.645Z,96082.91
2022-08-27T22:49:20.201Z,96089.34
2022-08-27T22:51:49.176Z,96094.59
2022-08-27T22:54:17.239Z,96092.72
2022-08-27T22:56:44.979Z,96093.22
2022-08-27T22:59:14.320Z,96082.56
2022-08-27T23:01:42.213Z,96080.06
2022-08-27T23:04:09.902Z,96090.38
2022-08-27T23:06:38.290Z,96089.44
2022-08-27T23:09:05.947Z,96087.03
2022-08-27T23:11:33.480Z,96089.06
2022-08-27T23:14:01.666Z,96081.22
2022-08-27T23:16:31.657Z,96086.03
2022-08-27T23:18:59.308Z,96073.41
2022-08-27T23:21:26.825Z,96076.38
2022-08-27T23:23:54.324Z,96068.84
2022-08-27T23:26:54.123Z,96066.44
2022-08-27T23:29:22.945Z,96081.94
2022-08-27T23:31:52.895Z,96065.59
2022-08-27T23:34:22.696Z,96077.06
2022-08-27T23:36:50.865Z,96076.56
2022-08-27T23:39:18.734Z,96071.22
2022-08-27T23:41:46.242Z,96077.13
2022-08-27T23:44:13.757Z,96070.31
2022-08-27T23:46:41.272Z,96063.75
2022-08-27T23:49:10.131Z,96073.00
2022-08-27T23:51:38.564Z,96065.28
2022-08-27T23:54:06.101Z,96071.38
2022-08-27T23:56:33.601Z,96063.75
2022-08-27T23:59:01.075Z,96070.34
